HKMO/MBA METAR and TAF weather

Enter ICAO airport designator
Station Type Date Time Source
HKMO METAR 2021/09/16 21:30 UTC NOAA

HKMO 162130Z 20003KT 9999 FEW020 24/22 Q1013 NOSIG


Station Type Date Time Source
HKMO Decoded METAR 2021/09/16 21:30 UTC NOAA

Mombasa, Kenya (HKMO) 04-02S 039-37E 55M
Sep 16, 2021 - 05:30 PM EDT / 2021.09.16 2130 UTC
Wind: from the SSW (200 degrees) at 3 MPH (3 KT):0
Visibility: greater than 7 mile(s):0
Sky conditions: mostly clear
Temperature: 75 F (24 C)
Dew Point: 71 F (22 C)
Relative Humidity: 88%
Pressure (altimeter): 29.91 in. Hg (1013 hPa)
ob: HKMO 162130Z 20003KT 9999 FEW020 24/22 Q1013 NOSIG
cycle: 21

Station Type Date Time Source
HKMO TAF 2021/09/16 18:42 UTC NOAA

TAF TAF HKMO 161700Z 1618/1724 17005KT 9999 FEW020
TEMPO 1700/1704 23005KT -RA SCT019 BKN080
BECMG 1709/1712 15010KT NSW FEW025

Example: see airport list